California — WDA4337 — position and weather

sailwx.info

Track history (hours):
 
Tides and Currents Weather Stations Pressure Air Temp Water Temp Dewpoint Dewpoint Depression Visibility Wind Speed Wind Dir Waves Ship Positions

California

Owner: SAN FRANCISCO BAR PILOTS, SAN FRANCISCO, CA. More information available from US FCC via Universal Licensing System and Coast Guard Vessel Documentation Center.

Last reported at 2018-Apr-14 14:01 UTC. Time now 2018-Apr-20 12:47 UTC.
Position N 37°48' W 122°24'.

Length 32 m; draft 3 m.

Type: Pilot. MMSI: 366808340.

Date/timePositionNaut miles runAvg speedWind from/ knotsBaromVisibWave heightAir tempDewpointWater temp
2018-Apr-14 14:01N 37°48' W 122°24'612.3
2018-Apr-14 13:31N 37°48' W 122°32'612.1
2018-Apr-14 13:00N 37°45' W 122°39'3 5.1
2018-Apr-14 12:30N 37°44' W 122°42'1 2.2
2018-Apr-14 12:00N 37°44' W 122°40'1 1.1
2018-Apr-14 11:31N 37°45' W 122°40'2 3.5
2018-Apr-14 11:00N 37°46' W 122°42'0 0.6
2018-Apr-14 10:31N 37°46' W 122°41'1 1.0
2018-Apr-14 10:00N 37°46' W 122°41'1 1.2
2018-Apr-14 09:30N 37°46' W 122°40'1 2.0
2018-Apr-14 09:00N 37°46' W 122°41'1 2.3
2018-Apr-14 08:30N 37°46' W 122°40'1 1.1
2018-Apr-14 08:01N 37°46' W 122°40'0 0.4
2018-Apr-14 07:31N 37°46' W 122°41'2 3.7
2018-Apr-14 07:00N 37°46' W 122°43'1 1.9
2018-Apr-14 06:30N 37°46' W 122°42'1 1.9
2018-Apr-14 06:00N 37°45' W 122°41'1 1.3
2018-Apr-14 05:30N 37°46' W 122°41'1 2.9
2018-Apr-14 05:00N 37°46' W 122°39'1 3.0
2018-Apr-14 04:30N 37°46' W 122°41'1 1.9
2018-Apr-14 04:01N 37°47' W 122°42'1 2.3
2018-Apr-14 03:30N 37°46' W 122°41'1 1.2
2018-Apr-14 03:00N 37°46' W 122°41'1 2.2
2018-Apr-14 02:30N 37°46' W 122°40'1 2.3
2018-Apr-14 02:00N 37°47' W 122°41'2 3.7
2018-Apr-14 01:31N 37°45' W 122°40'2 3.6
2018-Apr-14 01:00N 37°47' W 122°41'2 3.3
2018-Apr-14 00:30N 37°45' W 122°39'1 2.2
2018-Apr-14 00:00N 37°44' W 122°40'2 4.0
2018-Apr-13 23:30N 37°44' W 122°42'0 0.2
2018-Apr-13 23:00N 37°44' W 122°42'3 5.3
2018-Apr-13 22:31N 37°46' W 122°40'2 4.4
2018-Apr-13 22:00N 37°44' W 122°41'2 4.2
2018-Apr-13 21:30N 37°44' W 122°39'2 4.6
2018-Apr-13 21:00N 37°44' W 122°42'1 1.3
2018-Apr-13 20:30N 37°44' W 122°41'1 1.7
2018-Apr-13 20:00N 37°44' W 122°40'1 2.0
2018-Apr-13 19:30N 37°45' W 122°39'2 3.6
2018-Apr-13 19:00N 37°46' W 122°40'2 3.5
2018-Apr-13 18:30N 37°47' W 122°42'1 2.0
2018-Apr-13 18:00N 37°47' W 122°41'1 2.1
2018-Apr-13 17:30N 37°46' W 122°39'2 4.6
2018-Apr-13 17:01N 37°44' W 122°40'2 3.8
2018-Apr-13 16:30N 37°46' W 122°40'1 2.6
2018-Apr-13 16:00N 37°47' W 122°42'1 1.5
2018-Apr-13 15:30N 37°46' W 122°41'0 1.0
2018-Apr-13 15:00N 37°47' W 122°41'1 1.9
2018-Apr-13 14:26N 37°47' W 122°42'1 1.3
2018-Apr-13 14:00N 37°47' W 122°42'2 3.1
2018-Apr-13 13:30N 37°46' W 122°40'0 0.8
2018-Apr-13 13:01N 37°45' W 122°40'1 1.8
2018-Apr-13 12:24N 37°44' W 122°41'0 0.8
2018-Apr-13 12:00N 37°44' W 122°40'1 1.6
2018-Apr-13 11:28N 37°44' W 122°41'1 0.7
2018-Apr-13 10:41N 37°45' W 122°42'1 6.9
2018-Apr-13 10:30N 37°45' W 122°40'1 1.2
2018-Apr-13 10:00N 37°44' W 122°41'1 2.4
2018-Apr-13 09:29N 37°44' W 122°42'1 1.6
2018-Apr-13 08:43N 37°45' W 122°43'1 3.1
2018-Apr-13 08:27N 37°45' W 122°42'1 2.8
2018-Apr-13 08:00N 37°45' W 122°40'1 1.0
2018-Apr-13 07:30N 37°46' W 122°40'1 1.7
2018-Apr-13 06:58N 37°45' W 122°39'0 0.7
2018-Apr-13 06:30N 37°45' W 122°39'3 4.1
2018-Apr-13 05:48N 37°45' W 122°43'1 1.7
2018-Apr-13 05:29N 37°45' W 122°42'1 1.7
2018-Apr-13 05:00N 37°45' W 122°41'1 1.4
2018-Apr-13 04:30N 37°46' W 122°40'1 1.2
2018-Apr-13 04:00N 37°46' W 122°39'3 5.0
2018-Apr-13 03:24N 37°44' W 122°43'1 1.6
2018-Apr-13 03:00N 37°44' W 122°42'1 1.4
2018-Apr-13 02:30N 37°45' W 122°41'2 3.7
2018-Apr-13 02:00N 37°46' W 122°41'0 0.9
2018-Apr-13 01:30N 37°46' W 122°41'2 3.2
2018-Apr-13 00:48N 37°44' W 122°42'0 1.2
2018-Apr-13 00:27N 37°44' W 122°42'0 1.1
2018-Apr-13 00:00N 37°44' W 122°41'2 3.0
2018-Apr-12 23:23N 37°46' W 122°41'0 0.7
2018-Apr-12 23:00N 37°46' W 122°41'1 2.1
2018-Apr-12 22:30N 37°46' W 122°42'1 2.0
2018-Apr-12 22:00N 37°46' W 122°41'1 2.2
2018-Apr-12 21:29N 37°45' W 122°40'0 0.5
2018-Apr-12 21:00N 37°45' W 122°40'1 1.5
2018-Apr-12 20:30N 37°45' W 122°39'4 7.3
2018-Apr-12 20:00N 37°47' W 122°35'4 8.2
2018-Apr-12 19:30N 37°48' W 122°30'5 9.8
2018-Apr-12 19:01N 37°48' W 122°24'0 0.0
2018-Apr-12 18:30N 37°48' W 122°24'0 0.0
2018-Apr-12 18:00N 37°48' W 122°24'0 0.0
2018-Apr-12 17:30N 37°48' W 122°24'0 0.0
2018-Apr-12 17:00N 37°48' W 122°24'0 0.0
2018-Apr-12 16:30N 37°48' W 122°24'1 1.1
2018-Apr-12 16:01N 37°49' W 122°24'713.5
2018-Apr-12 15:31N 37°48' W 122°32'713.3
2018-Apr-12 15:00N 37°46' W 122°40'1 2.0
2018-Apr-12 14:30N 37°45' W 122°41'1 1.4
2018-Apr-12 13:52N 37°45' W 122°40'1 2.6
2018-Apr-12 13:30N 37°46' W 122°41'0 0.9
2018-Apr-12 12:58N 37°46' W 122°42'1 2.2
2018-Apr-12 12:30N 37°47' W 122°42'2 3.0
2018-Apr-12 11:59N 37°46' W 122°41'2 3.4
2018-Apr-12 11:30N 37°47' W 122°43'2 3.9
2018-Apr-12 11:00N 37°46' W 122°41'1 1.1
2018-Apr-12 10:30N 37°45' W 122°41'0 0.8
2018-Apr-12 09:59N 37°46' W 122°41'0 1.0
2018-Apr-12 09:29N 37°46' W 122°41'1 2.9
2018-Apr-12 09:00N 37°46' W 122°39'0 0.7
2018-Apr-12 08:30N 37°46' W 122°40'2 4.2
2018-Apr-12 07:58N 37°47' W 122°43'1 1.3
2018-Apr-12 07:30N 37°46' W 122°42'1 1.9
2018-Apr-12 06:50N 37°46' W 122°41'1 1.9
2018-Apr-12 06:30N 37°45' W 122°40'0 0.8
2018-Apr-12 06:00N 37°46' W 122°40'1 1.9
2018-Apr-12 05:30N 37°45' W 122°40'1 1.3
2018-Apr-12 04:59N 37°45' W 122°40'0 0.5
2018-Apr-12 04:31N 37°46' W 122°40'0 0.6
2018-Apr-12 04:00N 37°46' W 122°40'1 1.5
2018-Apr-12 03:30N 37°45' W 122°40'0 0.8
2018-Apr-12 02:55N 37°45' W 122°40'2 3.7
2018-Apr-12 02:18N 37°44' W 122°42'1 2.5
2018-Apr-12 01:55N 37°44' W 122°42'1 2.0
2018-Apr-12 01:22N 37°44' W 122°42'1 0.7
2018-Apr-11 23:58N 37°45' W 122°41'1 1.7
2018-Apr-11 23:19N 37°45' W 122°40'1 1.9
2018-Apr-11 22:56N 37°46' W 122°39'1 2.1
2018-Apr-11 22:29N 37°45' W 122°40'1 1.6
2018-Apr-11 21:58N 37°44' W 122°41'0 0.4
2018-Apr-11 21:14N 37°45' W 122°40'0 1.5
2018-Apr-11 21:00N 37°44' W 122°41'1 1.6
2018-Apr-11 20:24N 37°45' W 122°40'1 2.0
2018-Apr-11 19:40N 37°46' W 122°41'1 2.3
2018-Apr-11 19:24N 37°46' W 122°41'1 2.1
2018-Apr-11 19:00N 37°45' W 122°40'1 2.2
2018-Apr-11 18:30N 37°45' W 122°39'2 2.7
2018-Apr-11 17:56N 37°44' W 122°41'0 0.9
2018-Apr-11 17:29N 37°45' W 122°41'1 1.0
2018-Apr-11 16:55N 37°45' W 122°41'0 0.3
2018-Apr-11 16:03N 37°45' W 122°41'0 1.9
2018-Apr-11 16:00N 37°45' W 122°41'1 2.1
2018-Apr-11 15:28N 37°45' W 122°42'1 1.7
2018-Apr-11 14:59N 37°45' W 122°43'1 2.4
2018-Apr-11 14:30N 37°45' W 122°42'1 2.3
2018-Apr-11 13:59N 37°45' W 122°40'1 2.2
2018-Apr-11 13:29N 37°45' W 122°39'1 2.3
2018-Apr-11 12:57N 37°45' W 122°40'0 0.6
2018-Apr-11 12:15N 37°45' W 122°40'1 4.0
2018-Apr-11 11:56N 37°44' W 122°41'0 0.2
2018-Apr-11 11:27N 37°44' W 122°41'1 1.3
2018-Apr-11 11:00N 37°44' W 122°42'1 1.8
2018-Apr-11 10:28N 37°45' W 122°40'1 1.3
2018-Apr-11 10:00N 37°45' W 122°40'3 3.0
2018-Apr-11 09:05N 37°44' W 122°43'0 2.1
2018-Apr-11 08:59N 37°44' W 122°43'1 2.4
2018-Apr-11 08:29N 37°44' W 122°41'1 2.6
2018-Apr-11 07:55N 37°45' W 122°40'1 2.6
2018-Apr-11 07:30N 37°45' W 122°39'2 3.4
2018-Apr-11 06:54N 37°46' W 122°41'1 2.3
2018-Apr-11 06:30N 37°46' W 122°42'1 2.0
2018-Apr-11 06:00N 37°46' W 122°41'1 1.8
2018-Apr-11 05:30N 37°45' W 122°40'1 2.0
2018-Apr-11 05:00N 37°46' W 122°39'2 3.4
2018-Apr-11 04:30N 37°46' W 122°37'3 5.7
2018-Apr-11 04:00N 37°46' W 122°40'1 1.0
2018-Apr-11 03:30N 37°46' W 122°40'0 0.8
2018-Apr-11 03:00N 37°46' W 122°40'1 1.7
2018-Apr-11 02:28N 37°47' W 122°41'1 1.3
2018-Apr-11 02:00N 37°47' W 122°42'1 1.5
2018-Apr-11 01:30N 37°46' W 122°41'2 2.6
2018-Apr-11 00:52N 37°45' W 122°40'2 4.0
2018-Apr-11 00:26N 37°44' W 122°42'0 0.5
2018-Apr-10 23:55N 37°44' W 122°42'2 4.2
2018-Apr-10 23:29N 37°45' W 122°41'1 2.8
2018-Apr-10 23:01N 37°46' W 122°40'0 1.0
2018-Apr-10 22:31N 37°46' W 122°41'0 0.9
2018-Apr-10 22:00N 37°46' W 122°41'2 3.2
2018-Apr-10 21:30N 37°46' W 122°39'1 1.0
2018-Apr-10 21:00N 37°45' W 122°40'1 1.3
2018-Apr-10 20:29N 37°46' W 122°40'2 3.4
2018-Apr-10 20:00N 37°46' W 122°38'1 2.8
2018-Apr-10 19:30N 37°46' W 122°40'2 3.6
2018-Apr-10 19:00N 37°46' W 122°42'1 1.5
2018-Apr-10 18:31N 37°46' W 122°41'1 2.4
2018-Apr-10 18:00N 37°46' W 122°39'3 5.2
2018-Apr-10 17:31N 37°46' W 122°36'4 7.9
2018-Apr-10 17:01N 37°48' W 122°32'2 3.3
2018-Apr-10 16:30N 37°47' W 122°33'511.0
2018-Apr-10 16:00N 37°46' W 122°40'0 0.3
2018-Apr-10 15:30N 37°46' W 122°40'2 3.6
2018-Apr-10 15:00N 37°45' W 122°41'2 3.6
2018-Apr-10 14:31N 37°46' W 122°40'0 0.5
2018-Apr-10 14:00N 37°46' W 122°40'2 3.8
2018-Apr-10 13:30N 37°45' W 122°42'1 1.8
2018-Apr-10 12:59N 37°44' W 122°41'1 2.8
2018-Apr-10 12:30N 37°45' W 122°42'1 1.8
2018-Apr-10 12:00N 37°45' W 122°41'1 2.7
2018-Apr-10 11:30N 37°46' W 122°40'2 3.5
2018-Apr-10 11:01N 37°45' W 122°41'0 0.6
2018-Apr-10 10:30N 37°44' W 122°41'1 2.0
2018-Apr-10 10:00N 37°45' W 122°40'0 0.3
2018-Apr-10 09:31N 37°45' W 122°40'1 1.6
2018-Apr-10 09:00N 37°45' W 122°40'2 3.7
2018-Apr-10 08:22N 37°46' W 122°42'1 2.8
2018-Apr-10 08:00N 37°46' W 122°44'1 2.2
2018-Apr-10 07:30N 37°46' W 122°42'1 2.3
2018-Apr-10 07:00N 37°46' W 122°41'1 1.5
2018-Apr-10 06:30N 37°46' W 122°40'2 3.2
2018-Apr-10 05:57N 37°46' W 122°42'0 0.5
2018-Apr-10 05:30N 37°46' W 122°42'1 3.0
2018-Apr-10 05:00N 37°46' W 122°40'1 1.3
2018-Apr-10 04:30N 37°46' W 122°40'2 3.1
2018-Apr-10 04:00N 37°46' W 122°38'2 3.8
2018-Apr-10 03:30N 37°46' W 122°40'0 0.9
2018-Apr-10 03:00N 37°47' W 122°41'1 1.4
2018-Apr-10 02:29N 37°47' W 122°40'2 3.2
2018-Apr-10 02:00N 37°47' W 122°42'1 1.9
2018-Apr-10 01:30N 37°47' W 122°41'1 2.5
2018-Apr-10 01:00N 37°47' W 122°42'2 3.1
2018-Apr-10 00:29N 37°46' W 122°41'1 3.0
2018-Apr-10 00:00N 37°45' W 122°40'2 3.9
2018-Apr-09 23:28N 37°45' W 122°43'1 2.7
2018-Apr-09 23:00N 37°45' W 122°42'1 2.8
2018-Apr-09 22:30N 37°45' W 122°40'1 1.6
2018-Apr-09 22:00N 37°45' W 122°39'1 1.7
2018-Apr-09 21:30N 37°46' W 122°40'1 3.0
2018-Apr-09 21:00N 37°44' W 122°41'0 0.8
2018-Apr-09 20:30N 37°45' W 122°40'1 2.4
2018-Apr-09 20:00N 37°46' W 122°40'1 1.9
2018-Apr-09 19:30N 37°45' W 122°41'1 2.2
2018-Apr-09 19:00N 37°46' W 122°42'0 0.7
2018-Apr-09 18:30N 37°45' W 122°42'1 2.1
2018-Apr-09 18:00N 37°46' W 122°40'1 2.4
2018-Apr-09 17:30N 37°46' W 122°39'4 7.7
2018-Apr-09 17:00N 37°47' W 122°34'4 7.9
2018-Apr-09 16:31N 37°46' W 122°39'1 2.2
2018-Apr-09 15:59N 37°45' W 122°40'1 2.2
2018-Apr-09 15:30N 37°45' W 122°41'1 2.6
2018-Apr-09 15:00N 37°46' W 122°42'1 1.5
2018-Apr-09 14:30N 37°46' W 122°41'1 2.4
2018-Apr-09 14:00N 37°45' W 122°39'0 0.7
2018-Apr-09 13:30N 37°46' W 122°40'1 1.5
2018-Apr-09 13:00N 37°46' W 122°40'1 1.2
2018-Apr-09 12:30N 37°46' W 122°41'2 3.5
2018-Apr-09 12:00N 37°45' W 122°41'1 1.7
2018-Apr-09 11:29N 37°44' W 122°41'2 4.2
2018-Apr-09 10:59N 37°46' W 122°40'1 2.1
2018-Apr-09 10:30N 37°45' W 122°41'0 0.5
2018-Apr-09 10:00N 37°45' W 122°41'2 3.4
2018-Apr-09 09:30N 37°45' W 122°39'1 1.9
2018-Apr-09 09:01N 37°45' W 122°40'2 2.8
2018-Apr-09 08:25N 37°44' W 122°42'1 2.7
2018-Apr-09 08:00N 37°44' W 122°43'1 1.4
2018-Apr-09 07:30N 37°45' W 122°43'1 1.3
2018-Apr-09 07:00N 37°45' W 122°43'1 1.8
2018-Apr-09 06:30N 37°45' W 122°42'1 1.8
2018-Apr-09 06:00N 37°45' W 122°40'0 0.7
2018-Apr-09 05:30N 37°45' W 122°40'0 0.4
2018-Apr-09 05:00N 37°45' W 122°40'0 0.8
2018-Apr-09 04:30N 37°45' W 122°40'1 2.1
2018-Apr-09 04:00N 37°45' W 122°41'1 2.4
2018-Apr-09 03:30N 37°46' W 122°41'1 1.9
2018-Apr-09 03:00N 37°47' W 122°42'1 1.5
2018-Apr-09 02:30N 37°47' W 122°41'1 1.5
2018-Apr-09 02:01N 37°46' W 122°40'0 1.0
2018-Apr-09 01:30N 37°46' W 122°40'1 1.6
2018-Apr-09 01:01N 37°46' W 122°41'1 1.6
2018-Apr-09 00:30N 37°46' W 122°40'0 0.8
2018-Apr-09 00:00N 37°46' W 122°40'2 4.3
2018-Apr-08 23:30N 37°47' W 122°37'5 9.4
2018-Apr-08 23:00N 37°48' W 122°32'2 3.7
2018-Apr-08 22:30N 37°49' W 122°29'4 8.2
2018-Apr-08 22:01N 37°47' W 122°34'4 8.6
2018-Apr-08 21:31N 37°45' W 122°39'2 3.1
2018-Apr-08 21:00N 37°44' W 122°40'1 2.5
2018-Apr-08 20:29N 37°45' W 122°39'1 2.4
2018-Apr-08 20:00N 37°45' W 122°40'1 2.7
2018-Apr-08 19:28N 37°46' W 122°42'1 1.6
2018-Apr-08 19:00N 37°46' W 122°42'1 2.6
2018-Apr-08 18:30N 37°46' W 122°41'0 0.7
2018-Apr-08 18:00N 37°46' W 122°40'1 2.4
2018-Apr-08 17:29N 37°46' W 122°42'0 0.9
2018-Apr-08 17:00N 37°46' W 122°42'1 2.7
2018-Apr-08 16:31N 37°45' W 122°40'2 3.9
2018-Apr-08 16:00N 37°46' W 122°38'510.4
2018-Apr-08 15:30N 37°48' W 122°32'612.4
2018-Apr-08 15:00N 37°48' W 122°24'0 0.0
2018-Apr-08 14:30N 37°48' W 122°24'0 0.0
2018-Apr-08 14:00N 37°48' W 122°24'0 0.0
2018-Apr-08 13:30N 37°48' W 122°24'0 0.0
2018-Apr-08 13:00N 37°48' W 122°24'  
Track history (hours):
 
Tides and Currents Weather Stations Pressure Air Temp Water Temp Dewpoint Dewpoint Depression Visibility Wind Speed Wind Dir Waves Ship Positions

California

Owner: SAN FRANCISCO BAR PILOTS, SAN FRANCISCO, CA. More information available from US FCC via Universal Licensing System and Coast Guard Vessel Documentation Center.

Last reported at 2018-Apr-14 14:01 UTC. Time now 2018-Apr-20 12:47 UTC.
Position N 37°48' W 122°24'.

Length 32 m; draft 3 m.

Type: Pilot. MMSI: 366808340.

Date/timePositionNaut miles runAvg speedWind from/ knotsBaromVisibWave heightAir tempDewpointWater temp
2018-Apr-14 14:01N 37°48' W 122°24'612.3
2018-Apr-14 13:31N 37°48' W 122°32'612.1
2018-Apr-14 13:00N 37°45' W 122°39'3 5.1
2018-Apr-14 12:30N 37°44' W 122°42'1 2.2
2018-Apr-14 12:00N 37°44' W 122°40'1 1.1
2018-Apr-14 11:31N 37°45' W 122°40'2 3.5
2018-Apr-14 11:00N 37°46' W 122°42'0 0.6
2018-Apr-14 10:31N 37°46' W 122°41'1 1.0
2018-Apr-14 10:00N 37°46' W 122°41'1 1.2
2018-Apr-14 09:30N 37°46' W 122°40'1 2.0
2018-Apr-14 09:00N 37°46' W 122°41'1 2.3
2018-Apr-14 08:30N 37°46' W 122°40'1 1.1
2018-Apr-14 08:01N 37°46' W 122°40'0 0.4
2018-Apr-14 07:31N 37°46' W 122°41'2 3.7
2018-Apr-14 07:00N 37°46' W 122°43'1 1.9
2018-Apr-14 06:30N 37°46' W 122°42'1 1.9
2018-Apr-14 06:00N 37°45' W 122°41'1 1.3
2018-Apr-14 05:30N 37°46' W 122°41'1 2.9
2018-Apr-14 05:00N 37°46' W 122°39'1 3.0
2018-Apr-14 04:30N 37°46' W 122°41'1 1.9
2018-Apr-14 04:01N 37°47' W 122°42'1 2.3
2018-Apr-14 03:30N 37°46' W 122°41'1 1.2
2018-Apr-14 03:00N 37°46' W 122°41'1 2.2
2018-Apr-14 02:30N 37°46' W 122°40'1 2.3
2018-Apr-14 02:00N 37°47' W 122°41'2 3.7
2018-Apr-14 01:31N 37°45' W 122°40'2 3.6
2018-Apr-14 01:00N 37°47' W 122°41'2 3.3
2018-Apr-14 00:30N 37°45' W 122°39'1 2.2
2018-Apr-14 00:00N 37°44' W 122°40'2 4.0
2018-Apr-13 23:30N 37°44' W 122°42'0 0.2
2018-Apr-13 23:00N 37°44' W 122°42'3 5.3
2018-Apr-13 22:31N 37°46' W 122°40'2 4.4
2018-Apr-13 22:00N 37°44' W 122°41'2 4.2
2018-Apr-13 21:30N 37°44' W 122°39'2 4.6
2018-Apr-13 21:00N 37°44' W 122°42'1 1.3
2018-Apr-13 20:30N 37°44' W 122°41'1 1.7
2018-Apr-13 20:00N 37°44' W 122°40'1 2.0
2018-Apr-13 19:30N 37°45' W 122°39'2 3.6
2018-Apr-13 19:00N 37°46' W 122°40'2 3.5
2018-Apr-13 18:30N 37°47' W 122°42'1 2.0
2018-Apr-13 18:00N 37°47' W 122°41'1 2.1
2018-Apr-13 17:30N 37°46' W 122°39'2 4.6
2018-Apr-13 17:01N 37°44' W 122°40'2 3.8
2018-Apr-13 16:30N 37°46' W 122°40'1 2.6
2018-Apr-13 16:00N 37°47' W 122°42'1 1.5
2018-Apr-13 15:30N 37°46' W 122°41'0 1.0
2018-Apr-13 15:00N 37°47' W 122°41'1 1.9
2018-Apr-13 14:26N 37°47' W 122°42'1 1.3
2018-Apr-13 14:00N 37°47' W 122°42'2 3.1
2018-Apr-13 13:30N 37°46' W 122°40'0 0.8
2018-Apr-13 13:01N 37°45' W 122°40'1 1.8
2018-Apr-13 12:24N 37°44' W 122°41'0 0.8
2018-Apr-13 12:00N 37°44' W 122°40'1 1.6
2018-Apr-13 11:28N 37°44' W 122°41'1 0.7
2018-Apr-13 10:41N 37°45' W 122°42'1 6.9
2018-Apr-13 10:30N 37°45' W 122°40'1 1.2
2018-Apr-13 10:00N 37°44' W 122°41'1 2.4
2018-Apr-13 09:29N 37°44' W 122°42'1 1.6
2018-Apr-13 08:43N 37°45' W 122°43'1 3.1
2018-Apr-13 08:27N 37°45' W 122°42'1 2.8
2018-Apr-13 08:00N 37°45' W 122°40'1 1.0
2018-Apr-13 07:30N 37°46' W 122°40'1 1.7
2018-Apr-13 06:58N 37°45' W 122°39'0 0.7
2018-Apr-13 06:30N 37°45' W 122°39'3 4.1
2018-Apr-13 05:48N 37°45' W 122°43'1 1.7
2018-Apr-13 05:29N 37°45' W 122°42'1 1.7
2018-Apr-13 05:00N 37°45' W 122°41'1 1.4
2018-Apr-13 04:30N 37°46' W 122°40'1 1.2
2018-Apr-13 04:00N 37°46' W 122°39'3 5.0
2018-Apr-13 03:24N 37°44' W 122°43'1 1.6
2018-Apr-13 03:00N 37°44' W 122°42'1 1.4
2018-Apr-13 02:30N 37°45' W 122°41'2 3.7
2018-Apr-13 02:00N 37°46' W 122°41'0 0.9
2018-Apr-13 01:30N 37°46' W 122°41'2 3.2
2018-Apr-13 00:48N 37°44' W 122°42'0 1.2
2018-Apr-13 00:27N 37°44' W 122°42'0 1.1
2018-Apr-13 00:00N 37°44' W 122°41'2 3.0
2018-Apr-12 23:23N 37°46' W 122°41'0 0.7
2018-Apr-12 23:00N 37°46' W 122°41'1 2.1
2018-Apr-12 22:30N 37°46' W 122°42'1 2.0
2018-Apr-12 22:00N 37°46' W 122°41'1 2.2
2018-Apr-12 21:29N 37°45' W 122°40'0 0.5
2018-Apr-12 21:00N 37°45' W 122°40'1 1.5
2018-Apr-12 20:30N 37°45' W 122°39'4 7.3
2018-Apr-12 20:00N 37°47' W 122°35'4 8.2
2018-Apr-12 19:30N 37°48' W 122°30'5 9.8
2018-Apr-12 19:01N 37°48' W 122°24'0 0.0
2018-Apr-12 18:30N 37°48' W 122°24'0 0.0
2018-Apr-12 18:00N 37°48' W 122°24'0 0.0
2018-Apr-12 17:30N 37°48' W 122°24'0 0.0
2018-Apr-12 17:00N 37°48' W 122°24'0 0.0
2018-Apr-12 16:30N 37°48' W 122°24'1 1.1
2018-Apr-12 16:01N 37°49' W 122°24'713.5
2018-Apr-12 15:31N 37°48' W 122°32'713.3
2018-Apr-12 15:00N 37°46' W 122°40'1 2.0
2018-Apr-12 14:30N 37°45' W 122°41'1 1.4
2018-Apr-12 13:52N 37°45' W 122°40'1 2.6
2018-Apr-12 13:30N 37°46' W 122°41'0 0.9
2018-Apr-12 12:58N 37°46' W 122°42'1 2.2
2018-Apr-12 12:30N 37°47' W 122°42'2 3.0
2018-Apr-12 11:59N 37°46' W 122°41'2 3.4
2018-Apr-12 11:30N 37°47' W 122°43'2 3.9
2018-Apr-12 11:00N 37°46' W 122°41'1 1.1
2018-Apr-12 10:30N 37°45' W 122°41'0 0.8
2018-Apr-12 09:59N 37°46' W 122°41'0 1.0
2018-Apr-12 09:29N 37°46' W 122°41'1 2.9
2018-Apr-12 09:00N 37°46' W 122°39'0 0.7
2018-Apr-12 08:30N 37°46' W 122°40'2 4.2
2018-Apr-12 07:58N 37°47' W 122°43'1 1.3
2018-Apr-12 07:30N 37°46' W 122°42'1 1.9
2018-Apr-12 06:50N 37°46' W 122°41'1 1.9
2018-Apr-12 06:30N 37°45' W 122°40'0 0.8
2018-Apr-12 06:00N 37°46' W 122°40'1 1.9
2018-Apr-12 05:30N 37°45' W 122°40'1 1.3
2018-Apr-12 04:59N 37°45' W 122°40'0 0.5
2018-Apr-12 04:31N 37°46' W 122°40'0 0.6
2018-Apr-12 04:00N 37°46' W 122°40'1 1.5
2018-Apr-12 03:30N 37°45' W 122°40'0 0.8
2018-Apr-12 02:55N 37°45' W 122°40'2 3.7
2018-Apr-12 02:18N 37°44' W 122°42'1 2.5
2018-Apr-12 01:55N 37°44' W 122°42'1 2.0
2018-Apr-12 01:22N 37°44' W 122°42'1 0.7
2018-Apr-11 23:58N 37°45' W 122°41'1 1.7
2018-Apr-11 23:19N 37°45' W 122°40'1 1.9
2018-Apr-11 22:56N 37°46' W 122°39'1 2.1
2018-Apr-11 22:29N 37°45' W 122°40'1 1.6
2018-Apr-11 21:58N 37°44' W 122°41'0 0.4
2018-Apr-11 21:14N 37°45' W 122°40'0 1.5
2018-Apr-11 21:00N 37°44' W 122°41'1 1.6
2018-Apr-11 20:24N 37°45' W 122°40'1 2.0
2018-Apr-11 19:40N 37°46' W 122°41'1 2.3
2018-Apr-11 19:24N 37°46' W 122°41'1 2.1
2018-Apr-11 19:00N 37°45' W 122°40'1 2.2
2018-Apr-11 18:30N 37°45' W 122°39'2 2.7
2018-Apr-11 17:56N 37°44' W 122°41'0 0.9
2018-Apr-11 17:29N 37°45' W 122°41'1 1.0
2018-Apr-11 16:55N 37°45' W 122°41'0 0.3
2018-Apr-11 16:03N 37°45' W 122°41'0 1.9
2018-Apr-11 16:00N 37°45' W 122°41'1 2.1
2018-Apr-11 15:28N 37°45' W 122°42'1 1.7
2018-Apr-11 14:59N 37°45' W 122°43'1 2.4
2018-Apr-11 14:30N 37°45' W 122°42'1 2.3
2018-Apr-11 13:59N 37°45' W 122°40'1 2.2
2018-Apr-11 13:29N 37°45' W 122°39'1 2.3
2018-Apr-11 12:57N 37°45' W 122°40'0 0.6
2018-Apr-11 12:15N 37°45' W 122°40'1 4.0
2018-Apr-11 11:56N 37°44' W 122°41'0 0.2
2018-Apr-11 11:27N 37°44' W 122°41'1 1.3
2018-Apr-11 11:00N 37°44' W 122°42'1 1.8
2018-Apr-11 10:28N 37°45' W 122°40'1 1.3
2018-Apr-11 10:00N 37°45' W 122°40'3 3.0
2018-Apr-11 09:05N 37°44' W 122°43'0 2.1
2018-Apr-11 08:59N 37°44' W 122°43'1 2.4
2018-Apr-11 08:29N 37°44' W 122°41'1 2.6
2018-Apr-11 07:55N 37°45' W 122°40'1 2.6
2018-Apr-11 07:30N 37°45' W 122°39'2 3.4
2018-Apr-11 06:54N 37°46' W 122°41'1 2.3
2018-Apr-11 06:30N 37°46' W 122°42'1 2.0
2018-Apr-11 06:00N 37°46' W 122°41'1 1.8
2018-Apr-11 05:30N 37°45' W 122°40'1 2.0
2018-Apr-11 05:00N 37°46' W 122°39'2 3.4
2018-Apr-11 04:30N 37°46' W 122°37'3 5.7
2018-Apr-11 04:00N 37°46' W 122°40'1 1.0
2018-Apr-11 03:30N 37°46' W 122°40'0 0.8
2018-Apr-11 03:00N 37°46' W 122°40'1 1.7
2018-Apr-11 02:28N 37°47' W 122°41'1 1.3
2018-Apr-11 02:00N 37°47' W 122°42'1 1.5
2018-Apr-11 01:30N 37°46' W 122°41'2 2.6
2018-Apr-11 00:52N 37°45' W 122°40'2 4.0
2018-Apr-11 00:26N 37°44' W 122°42'0 0.5
2018-Apr-10 23:55N 37°44' W 122°42'2 4.2
2018-Apr-10 23:29N 37°45' W 122°41'1 2.8
2018-Apr-10 23:01N 37°46' W 122°40'0 1.0
2018-Apr-10 22:31N 37°46' W 122°41'0 0.9
2018-Apr-10 22:00N 37°46' W 122°41'2 3.2
2018-Apr-10 21:30N 37°46' W 122°39'1 1.0
2018-Apr-10 21:00N 37°45' W 122°40'1 1.3
2018-Apr-10 20:29N 37°46' W 122°40'2 3.4
2018-Apr-10 20:00N 37°46' W 122°38'1 2.8
2018-Apr-10 19:30N 37°46' W 122°40'2 3.6
2018-Apr-10 19:00N 37°46' W 122°42'1 1.5
2018-Apr-10 18:31N 37°46' W 122°41'1 2.4
2018-Apr-10 18:00N 37°46' W 122°39'3 5.2
2018-Apr-10 17:31N 37°46' W 122°36'4 7.9
2018-Apr-10 17:01N 37°48' W 122°32'2 3.3
2018-Apr-10 16:30N 37°47' W 122°33'511.0
2018-Apr-10 16:00N 37°46' W 122°40'0 0.3
2018-Apr-10 15:30N 37°46' W 122°40'2 3.6
2018-Apr-10 15:00N 37°45' W 122°41'2 3.6
2018-Apr-10 14:31N 37°46' W 122°40'0 0.5
2018-Apr-10 14:00N 37°46' W 122°40'2 3.8
2018-Apr-10 13:30N 37°45' W 122°42'1 1.8
2018-Apr-10 12:59N 37°44' W 122°41'1 2.8
2018-Apr-10 12:30N 37°45' W 122°42'1 1.8
2018-Apr-10 12:00N 37°45' W 122°41'1 2.7
2018-Apr-10 11:30N 37°46' W 122°40'2 3.5
2018-Apr-10 11:01N 37°45' W 122°41'0 0.6
2018-Apr-10 10:30N 37°44' W 122°41'1 2.0
2018-Apr-10 10:00N 37°45' W 122°40'0 0.3
2018-Apr-10 09:31N 37°45' W 122°40'1 1.6
2018-Apr-10 09:00N 37°45' W 122°40'2 3.7
2018-Apr-10 08:22N 37°46' W 122°42'1 2.8
2018-Apr-10 08:00N 37°46' W 122°44'1 2.2
2018-Apr-10 07:30N 37°46' W 122°42'1 2.3
2018-Apr-10 07:00N 37°46' W 122°41'1 1.5
2018-Apr-10 06:30N 37°46' W 122°40'2 3.2
2018-Apr-10 05:57N 37°46' W 122°42'0 0.5
2018-Apr-10 05:30N 37°46' W 122°42'1 3.0
2018-Apr-10 05:00N 37°46' W 122°40'1 1.3
2018-Apr-10 04:30N 37°46' W 122°40'2 3.1
2018-Apr-10 04:00N 37°46' W 122°38'2 3.8
2018-Apr-10 03:30N 37°46' W 122°40'0 0.9
2018-Apr-10 03:00N 37°47' W 122°41'1 1.4
2018-Apr-10 02:29N 37°47' W 122°40'2 3.2
2018-Apr-10 02:00N 37°47' W 122°42'1 1.9
2018-Apr-10 01:30N 37°47' W 122°41'1 2.5
2018-Apr-10 01:00N 37°47' W 122°42'2 3.1
2018-Apr-10 00:29N 37°46' W 122°41'1 3.0
2018-Apr-10 00:00N 37°45' W 122°40'2 3.9
2018-Apr-09 23:28N 37°45' W 122°43'1 2.7
2018-Apr-09 23:00N 37°45' W 122°42'1 2.8
2018-Apr-09 22:30N 37°45' W 122°40'1 1.6
2018-Apr-09 22:00N 37°45' W 122°39'1 1.7
2018-Apr-09 21:30N 37°46' W 122°40'1 3.0
2018-Apr-09 21:00N 37°44' W 122°41'0 0.8
2018-Apr-09 20:30N 37°45' W 122°40'1 2.4
2018-Apr-09 20:00N 37°46' W 122°40'1 1.9
2018-Apr-09 19:30N 37°45' W 122°41'1 2.2
2018-Apr-09 19:00N 37°46' W 122°42'0 0.7
2018-Apr-09 18:30N 37°45' W 122°42'1 2.1
2018-Apr-09 18:00N 37°46' W 122°40'1 2.4
2018-Apr-09 17:30N 37°46' W 122°39'4 7.7
2018-Apr-09 17:00N 37°47' W 122°34'4 7.9
2018-Apr-09 16:31N 37°46' W 122°39'1 2.2
2018-Apr-09 15:59N 37°45' W 122°40'1 2.2
2018-Apr-09 15:30N 37°45' W 122°41'1 2.6
2018-Apr-09 15:00N 37°46' W 122°42'1 1.5
2018-Apr-09 14:30N 37°46' W 122°41'1 2.4
2018-Apr-09 14:00N 37°45' W 122°39'0 0.7
2018-Apr-09 13:30N 37°46' W 122°40'1 1.5
2018-Apr-09 13:00N 37°46' W 122°40'1 1.2
2018-Apr-09 12:30N 37°46' W 122°41'2 3.5
2018-Apr-09 12:00N 37°45' W 122°41'1 1.7
2018-Apr-09 11:29N 37°44' W 122°41'2 4.2
2018-Apr-09 10:59N 37°46' W 122°40'1 2.1
2018-Apr-09 10:30N 37°45' W 122°41'0 0.5
2018-Apr-09 10:00N 37°45' W 122°41'2 3.4
2018-Apr-09 09:30N 37°45' W 122°39'1 1.9
2018-Apr-09 09:01N 37°45' W 122°40'2 2.8
2018-Apr-09 08:25N 37°44' W 122°42'1 2.7
2018-Apr-09 08:00N 37°44' W 122°43'1 1.4
2018-Apr-09 07:30N 37°45' W 122°43'1 1.3
2018-Apr-09 07:00N 37°45' W 122°43'1 1.8
2018-Apr-09 06:30N 37°45' W 122°42'1 1.8
2018-Apr-09 06:00N 37°45' W 122°40'0 0.7
2018-Apr-09 05:30N 37°45' W 122°40'0 0.4
2018-Apr-09 05:00N 37°45' W 122°40'0 0.8
2018-Apr-09 04:30N 37°45' W 122°40'1 2.1
2018-Apr-09 04:00N 37°45' W 122°41'1 2.4
2018-Apr-09 03:30N 37°46' W 122°41'1 1.9
2018-Apr-09 03:00N 37°47' W 122°42'1 1.5
2018-Apr-09 02:30N 37°47' W 122°41'1 1.5
2018-Apr-09 02:01N 37°46' W 122°40'0 1.0
2018-Apr-09 01:30N 37°46' W 122°40'1 1.6
2018-Apr-09 01:01N 37°46' W 122°41'1 1.6
2018-Apr-09 00:30N 37°46' W 122°40'0 0.8
2018-Apr-09 00:00N 37°46' W 122°40'2 4.3
2018-Apr-08 23:30N 37°47' W 122°37'5 9.4
2018-Apr-08 23:00N 37°48' W 122°32'2 3.7
2018-Apr-08 22:30N 37°49' W 122°29'4 8.2
2018-Apr-08 22:01N 37°47' W 122°34'4 8.6
2018-Apr-08 21:31N 37°45' W 122°39'2 3.1
2018-Apr-08 21:00N 37°44' W 122°40'1 2.5
2018-Apr-08 20:29N 37°45' W 122°39'1 2.4
2018-Apr-08 20:00N 37°45' W 122°40'1 2.7
2018-Apr-08 19:28N 37°46' W 122°42'1 1.6
2018-Apr-08 19:00N 37°46' W 122°42'1 2.6
2018-Apr-08 18:30N 37°46' W 122°41'0 0.7
2018-Apr-08 18:00N 37°46' W 122°40'1 2.4
2018-Apr-08 17:29N 37°46' W 122°42'0 0.9
2018-Apr-08 17:00N 37°46' W 122°42'1 2.7
2018-Apr-08 16:31N 37°45' W 122°40'2 3.9
2018-Apr-08 16:00N 37°46' W 122°38'510.4
2018-Apr-08 15:30N 37°48' W 122°32'612.4
2018-Apr-08 15:00N 37°48' W 122°24'0 0.0
2018-Apr-08 14:30N 37°48' W 122°24'0 0.0
2018-Apr-08 14:00N 37°48' W 122°24'0 0.0
2018-Apr-08 13:30N 37°48' W 122°24'0 0.0
2018-Apr-08 13:00N 37°48' W 122°24'  

Dump ship's entire track history